createdAt,value
2019-02-04T00:00:06.398Z,54.90
2019-02-04T00:02:35.433Z,54.30
2019-02-04T00:05:05.022Z,54.40
2019-02-04T00:07:33.996Z,54.40
2019-02-04T00:10:02.690Z,54.30
2019-02-04T00:12:31.380Z,54.30
2019-02-04T00:15:00.051Z,54.20
2019-02-04T00:17:29.050Z,54.70
2019-02-04T00:19:57.710Z,54.30
2019-02-04T00:22:26.961Z,54.40
2019-02-04T00:24:55.580Z,54.30
2019-02-04T00:27:24.365Z,55.00
2019-02-04T00:29:53.017Z,54.40
2019-02-04T00:32:21.699Z,54.40
2019-02-04T00:34:50.611Z,54.40
2019-02-04T00:37:19.297Z,54.40
2019-02-04T00:39:48.045Z,54.50
2019-02-04T00:42:17.023Z,54.50
2019-02-04T00:44:46.084Z,54.60
2019-02-04T00:47:14.713Z,54.50
2019-02-04T00:49:43.661Z,54.60
2019-02-04T00:52:12.436Z,54.40
2019-02-04T00:54:41.064Z,54.50
2019-02-04T00:57:09.740Z,54.50
2019-02-04T00:59:38.421Z,54.40
2019-02-04T01:02:07.082Z,54.70
2019-02-04T01:04:36.152Z,54.80
2019-02-04T01:07:05.551Z,54.70
2019-02-04T01:09:34.221Z,54.60
2019-02-04T01:12:02.933Z,54.60
2019-02-04T01:14:31.591Z,54.60
2019-02-04T01:17:03.532Z,54.60
2019-02-04T01:19:30.709Z,54.80
2019-02-04T01:21:59.456Z,54.70
2019-02-04T01:24:28.206Z,54.60
2019-02-04T01:26:57.377Z,54.60
2019-02-04T01:29:26.296Z,54.80
2019-02-04T01:31:55.076Z,54.70
2019-02-04T01:34:23.814Z,54.70
2019-02-04T01:36:52.749Z,54.70
2019-02-04T01:39:21.500Z,54.70
2019-02-04T01:41:50.155Z,54.60
2019-02-04T01:44:18.857Z,54.70
2019-02-04T01:46:47.530Z,54.80
2019-02-04T01:49:16.253Z,54.80
2019-02-04T01:51:44.937Z,54.90
2019-02-04T01:54:13.627Z,54.80
2019-02-04T01:56:42.319Z,54.80
2019-02-04T01:59:11.007Z,54.80
2019-02-04T02:01:39.672Z,54.70
2019-02-04T02:04:08.789Z,54.70
2019-02-04T02:06:37.466Z,54.70
2019-02-04T02:09:09.680Z,54.60
2019-02-04T02:11:38.344Z,55.70
2019-02-04T02:14:07.009Z,55.80
2019-02-04T02:16:35.692Z,55.80
2019-02-04T02:19:05.129Z,55.80
2019-02-04T02:21:34.091Z,55.70
2019-02-04T02:24:02.781Z,55.60
2019-02-04T02:26:31.481Z,55.60
2019-02-04T02:29:00.128Z,55.60
2019-02-04T02:31:29.188Z,55.60
2019-02-04T02:33:57.900Z,55.50
2019-02-04T02:36:26.636Z,55.60
2019-02-04T02:38:55.306Z,56.00
2019-02-04T02:41:24.276Z,55.60
2019-02-04T02:43:53.244Z,55.60
2019-02-04T02:46:21.960Z,55.60
2019-02-04T02:48:50.678Z,55.50
2019-02-04T02:51:19.367Z,55.70
2019-02-04T02:53:48.020Z,55.70
2019-02-04T02:56:16.711Z,55.90
2019-02-04T02:58:45.401Z,56.00
2019-02-04T03:01:14.413Z,55.90
2019-02-04T03:03:43.145Z,56.00
2019-02-04T03:06:11.861Z,56.10
2019-02-04T03:08:40.613Z,56.20
2019-02-04T03:11:09.337Z,56.20
2019-02-04T03:13:38.303Z,56.30
2019-02-04T03:16:06.977Z,56.20
2019-02-04T03:18:35.726Z,56.20
2019-02-04T03:21:04.799Z,56.20
2019-02-04T03:23:33.591Z,56.30
2019-02-04T03:26:02.611Z,57.00
2019-02-04T03:28:31.372Z,56.50
2019-02-04T03:31:00.114Z,56.50
2019-02-04T03:33:28.884Z,56.60
2019-02-04T03:35:57.589Z,56.70
2019-02-04T03:38:26.641Z,56.70
2019-02-04T03:40:55.287Z,56.70
2019-02-04T03:43:23.997Z,56.80
2019-02-04T03:45:52.773Z,56.90
2019-02-04T03:48:22.182Z,56.90
2019-02-04T03:50:50.973Z,57.00
2019-02-04T03:53:19.663Z,57.00
2019-02-04T03:55:48.653Z,57.10
2019-02-04T03:58:17.666Z,57.20
2019-02-04T04:00:46.441Z,57.20
2019-02-04T04:03:15.097Z,57.30
2019-02-04T04:05:43.789Z,57.40
2019-02-04T04:08:12.465Z,57.40
2019-02-04T04:10:41.175Z,57.50
2019-02-04T04:13:09.972Z,57.50
2019-02-04T04:15:38.813Z,57.50
2019-02-04T04:18:15.359Z,57.50
2019-02-04T04:20:38.288Z,57.50
2019-02-04T04:23:07.032Z,57.60
2019-02-04T04:25:35.769Z,57.70
2019-02-04T04:28:04.708Z,57.70
2019-02-04T04:30:33.411Z,57.80
2019-02-04T04:33:02.134Z,57.80
2019-02-04T04:35:30.931Z,57.70
2019-02-04T04:37:59.605Z,57.80
2019-02-04T04:40:28.340Z,57.80
2019-02-04T04:42:57.040Z,57.90
2019-02-04T04:45:26.102Z,57.90
2019-02-04T04:47:55.072Z,57.90
2019-02-04T04:50:23.806Z,57.90
2019-02-04T04:52:52.543Z,57.80
2019-02-04T04:55:23.349Z,57.70
2019-02-04T04:57:52.049Z,57.70
2019-02-04T05:00:22.663Z,57.80
2019-02-04T05:02:51.572Z,57.70
2019-02-04T05:05:20.500Z,57.80
2019-02-04T05:07:49.192Z,57.70
2019-02-04T05:10:18.331Z,57.80
2019-02-04T05:12:47.310Z,57.80
2019-02-04T05:15:17.989Z,57.70
2019-02-04T05:17:46.661Z,57.70
2019-02-04T05:20:15.676Z,57.80
2019-02-04T05:22:44.377Z,57.70
2019-02-04T05:25:13.130Z,57.90
2019-02-04T05:27:41.835Z,58.00
2019-02-04T05:30:12.916Z,58.00
2019-02-04T05:32:42.193Z,58.00
2019-02-04T05:35:11.049Z,58.20
2019-02-04T05:37:39.770Z,58.20
2019-02-04T05:40:09.969Z,58.00
2019-02-04T05:42:38.643Z,58.10
2019-02-04T05:45:08.461Z,58.00
2019-02-04T05:47:37.261Z,57.90
2019-02-04T05:50:07.209Z,58.00
2019-02-04T05:52:35.916Z,58.20
2019-02-04T05:55:05.110Z,58.40
2019-02-04T05:57:35.434Z,58.40
2019-02-04T06:00:04.880Z,58.30
2019-02-04T06:02:33.578Z,58.40
2019-02-04T06:05:02.315Z,58.40
2019-02-04T06:07:31.272Z,58.70
2019-02-04T06:09:59.979Z,58.60
2019-02-04T06:12:28.684Z,58.70
2019-02-04T06:14:57.384Z,58.70
2019-02-04T06:17:26.089Z,58.80
2019-02-04T06:19:55.112Z,58.80
2019-02-04T06:22:24.055Z,58.70
2019-02-04T06:24:52.976Z,58.60
2019-02-04T06:27:21.695Z,58.70
2019-02-04T06:29:50.480Z,58.70
2019-02-04T06:32:19.177Z,58.60
2019-02-04T06:34:47.920Z,58.50
2019-02-04T06:37:16.866Z,58.60
2019-02-04T06:39:45.632Z,58.50
2019-02-04T06:42:14.333Z,58.40
2019-02-04T06:44:42.992Z,58.50
2019-02-04T06:47:11.670Z,58.60
2019-02-04T06:49:40.373Z,58.40
2019-02-04T06:52:09.090Z,58.30
2019-02-04T06:54:37.854Z,58.30
2019-02-04T06:57:07.019Z,58.20
2019-02-04T06:59:36.002Z,58.10
2019-02-04T07:02:04.785Z,58.10
2019-02-04T07:04:34.421Z,58.50
2019-02-04T07:07:03.112Z,57.80
2019-02-04T07:09:31.816Z,57.70
2019-02-04T07:12:00.539Z,57.70
2019-02-04T07:14:29.531Z,57.60
2019-02-04T07:16:58.557Z,57.60
2019-02-04T07:19:27.557Z,57.60
2019-02-04T07:21:56.236Z,57.50
2019-02-04T07:24:24.957Z,57.30
2019-02-04T07:26:53.710Z,57.30
2019-02-04T07:29:22.784Z,57.30
2019-02-04T07:31:51.605Z,57.30
2019-02-04T07:34:20.262Z,57.10
2019-02-04T07:36:48.980Z,57.00
2019-02-04T07:39:17.684Z,57.00
2019-02-04T07:41:46.412Z,57.00
2019-02-04T07:44:15.172Z,57.00
2019-02-04T07:46:44.088Z,57.00
2019-02-04T07:49:13.038Z,56.90
2019-02-04T07:51:41.685Z,56.90
2019-02-04T07:54:10.383Z,56.90
2019-02-04T07:56:39.410Z,56.90
2019-02-04T07:59:08.121Z,56.80
2019-02-04T08:01:37.144Z,56.80
2019-02-04T08:04:05.864Z,56.70
2019-02-04T08:06:34.584Z,56.60
2019-02-04T08:09:05.093Z,56.50
2019-02-04T08:11:33.834Z,55.70
2019-02-04T08:14:02.858Z,55.50
2019-02-04T08:16:31.738Z,55.50
2019-02-04T08:19:00.483Z,55.50
2019-02-04T08:21:29.293Z,55.30
2019-02-04T08:23:58.001Z,55.40
2019-02-04T08:26:26.780Z,55.50
2019-02-04T08:28:55.479Z,55.60
2019-02-04T08:31:24.555Z,55.50
2019-02-04T08:33:53.330Z,55.40
2019-02-04T08:36:22.394Z,55.40
2019-02-04T08:38:51.213Z,55.40
2019-02-04T08:41:21.740Z,55.50
2019-02-04T08:43:50.801Z,55.40
2019-02-04T08:46:20.089Z,55.50
2019-02-04T08:48:48.835Z,55.70
2019-02-04T08:51:17.622Z,55.70
2019-02-04T08:53:46.337Z,55.70
2019-02-04T08:56:15.074Z,55.80
2019-02-04T08:58:43.827Z,55.80
2019-02-04T09:01:12.565Z,55.60
2019-02-04T09:03:41.540Z,55.50
2019-02-04T09:06:10.617Z,55.70
2019-02-04T09:08:39.339Z,55.70
2019-02-04T09:11:08.155Z,55.80
2019-02-04T09:13:36.875Z,55.80
2019-02-04T09:16:05.629Z,55.70
2019-02-04T09:18:44.444Z,55.80
2019-02-04T09:21:04.767Z,55.80
2019-02-04T09:23:33.517Z,55.80
2019-02-04T09:26:02.304Z,55.60
2019-02-04T09:28:31.380Z,55.50
2019-02-04T09:31:00.123Z,55.60
2019-02-04T09:33:28.858Z,55.50
2019-02-04T09:35:57.632Z,55.60
2019-02-04T09:38:26.405Z,55.70
2019-02-04T09:40:55.340Z,55.50
2019-02-04T09:43:24.046Z,55.40
2019-02-04T09:45:52.809Z,55.30
2019-02-04T09:48:21.864Z,55.20
2019-02-04T09:50:56.653Z,55.30
2019-02-04T09:53:25.352Z,55.10
2019-02-04T09:55:56.884Z,55.10
2019-02-04T09:58:24.837Z,55.00
2019-02-04T10:00:53.527Z,54.90
2019-02-04T10:03:24.553Z,54.90
2019-02-04T10:05:53.769Z,54.80
2019-02-04T10:08:22.453Z,55.00
2019-02-04T10:10:51.140Z,54.80
2019-02-04T10:13:20.345Z,54.90
2019-02-04T10:15:49.377Z,54.70
2019-02-04T10:18:18.516Z,54.80
2019-02-04T10:20:47.267Z,54.90
2019-02-04T10:23:16.090Z,54.80
2019-02-04T10:25:44.837Z,54.80
2019-02-04T10:28:14.372Z,54.90
2019-02-04T10:30:43.138Z,54.80
2019-02-04T10:33:12.535Z,54.90
2019-02-04T10:35:41.317Z,55.00
2019-02-04T10:38:10.089Z,55.00
2019-02-04T10:40:39.148Z,55.10
2019-02-04T10:43:07.870Z,55.00
2019-02-04T10:45:36.559Z,54.90
2019-02-04T10:48:05.517Z,54.90
2019-02-04T10:50:45.855Z,54.90
2019-02-04T10:53:07.603Z,54.90
2019-02-04T10:55:36.377Z,54.80
2019-02-04T10:58:05.593Z,54.80
2019-02-04T11:00:34.796Z,54.80
2019-02-04T11:03:03.907Z,55.00
2019-02-04T11:05:33.825Z,55.20
2019-02-04T11:08:02.575Z,55.00
2019-02-04T11:10:34.104Z,54.80
2019-02-04T11:13:04.360Z,54.80
2019-02-04T11:15:33.085Z,54.80
2019-02-04T11:18:02.110Z,54.80
2019-02-04T11:20:31.222Z,54.80
2019-02-04T11:22:59.918Z,54.80
2019-02-04T11:25:28.693Z,54.80
2019-02-04T11:27:57.786Z,54.90
2019-02-04T11:30:31.779Z,54.90
2019-02-04T11:33:00.578Z,54.80
2019-02-04T11:35:29.713Z,54.80
2019-02-04T11:37:58.508Z,54.90
2019-02-04T11:40:32.224Z,55.00
2019-02-04T11:43:00.995Z,55.50
2019-02-04T11:45:30.158Z,54.80
2019-02-04T11:47:59.055Z,54.90
2019-02-04T11:50:27.796Z,54.90
2019-02-04T11:52:56.617Z,54.90
2019-02-04T11:55:25.625Z,54.90
2019-02-04T11:57:54.926Z,54.80
2019-02-04T12:00:25.185Z,54.70
2019-02-04T12:02:54.477Z,54.50
2019-02-04T12:05:23.203Z,54.80
2019-02-04T12:07:51.926Z,54.80
2019-02-04T12:10:22.976Z,54.70
2019-02-04T12:12:51.682Z,54.70
2019-02-04T12:15:21.033Z,54.70
2019-02-04T12:17:50.338Z,54.70
2019-02-04T12:20:19.201Z,54.80
2019-02-04T12:22:47.951Z,54.80
2019-02-04T12:25:18.649Z,54.90
2019-02-04T12:27:47.365Z,55.00
2019-02-04T12:30:22.334Z,55.00
2019-02-04T12:32:51.597Z,54.70
2019-02-04T12:35:20.266Z,54.60
2019-02-04T12:37:48.969Z,54.60
2019-02-04T12:40:18.061Z,54.50
2019-02-04T12:42:47.145Z,54.20
2019-02-04T12:45:21.787Z,54.00
2019-02-04T12:47:50.751Z,53.90
2019-02-04T12:50:19.750Z,54.00
2019-02-04T12:52:48.832Z,53.90
2019-02-04T12:55:18.750Z,54.00
2019-02-04T12:57:47.859Z,54.10
2019-02-04T13:00:18.853Z,54.20
2019-02-04T13:02:47.694Z,54.40
2019-02-04T13:05:19.400Z,54.50
2019-02-04T13:07:48.133Z,55.00
2019-02-04T13:10:16.993Z,54.50
2019-02-04T13:12:45.759Z,54.50
2019-02-04T13:15:16.974Z,55.10
2019-02-04T13:17:46.168Z,54.60
2019-02-04T13:20:15.954Z,54.60
2019-02-04T13:22:45.162Z,54.60
2019-02-04T13:25:17.576Z,54.40
2019-02-04T13:27:46.561Z,54.50
2019-02-04T13:30:16.481Z,54.50
2019-02-04T13:32:45.189Z,54.60
2019-02-04T13:35:15.385Z,54.80
2019-02-04T13:37:44.356Z,54.80
2019-02-04T13:40:18.736Z,54.80
2019-02-04T13:42:47.541Z,54.90
2019-02-04T13:45:17.835Z,54.60
2019-02-04T13:47:46.937Z,54.70
2019-02-04T13:50:16.149Z,54.80
2019-02-04T13:52:45.186Z,54.70
2019-02-04T13:55:33.869Z,54.80
2019-02-04T13:58:02.641Z,54.70
2019-02-04T14:00:31.596Z,54.70
2019-02-04T14:03:00.372Z,54.60
2019-02-04T14:05:31.437Z,54.60
2019-02-04T14:08:00.334Z,54.60
2019-02-04T14:10:31.097Z,54.60
2019-02-04T14:12:59.802Z,54.60
2019-02-04T14:15:28.828Z,54.60
2019-02-04T14:17:58.150Z,54.40
2019-02-04T14:20:26.949Z,54.40
2019-02-04T14:22:55.745Z,54.30
2019-02-04T14:25:24.437Z,54.20
2019-02-04T14:27:53.101Z,54.20
2019-02-04T14:30:24.626Z,54.10
2019-02-04T14:32:53.682Z,54.10
2019-02-04T14:35:22.461Z,54.30
2019-02-04T14:37:51.513Z,54.40
2019-02-04T14:40:20.301Z,54.30
2019-02-04T14:42:52.065Z,54.40
2019-02-04T14:45:49.341Z,54.30
2019-02-04T14:49:14.829Z,54.40
2019-02-04T14:52:21.431Z,54.40
2019-02-04T14:55:04.492Z,54.20
2019-02-04T14:57:39.017Z,54.20
2019-02-04T15:00:28.765Z,54.10
2019-02-04T15:03:21.652Z,54.00
2019-02-04T15:06:17.937Z,53.80
2019-02-04T15:09:23.640Z,53.70
2019-02-04T15:12:17.645Z,53.60
2019-02-04T15:14:59.773Z,53.40
2019-02-04T15:18:05.346Z,53.30
2019-02-04T15:21:13.478Z,53.30
2019-02-04T15:24:09.137Z,53.20
2019-02-04T15:27:06.713Z,53.30
2019-02-04T15:29:59.332Z,53.30
2019-02-04T15:32:59.708Z,53.40
2019-02-04T15:36:10.322Z,53.30
2019-02-04T15:38:54.022Z,53.40
2019-02-04T15:41:37.245Z,53.40
2019-02-04T15:44:19.145Z,53.50
2019-02-04T15:47:04.578Z,53.60
2019-02-04T15:50:03.517Z,53.50
2019-02-04T15:52:32.218Z,53.50
2019-02-04T15:55:01.319Z,53.40
2019-02-04T15:57:30.327Z,53.40
2019-02-04T15:59:59.104Z,53.20
2019-02-04T16:02:27.849Z,53.20
2019-02-04T16:04:57.062Z,53.10
2019-02-04T16:07:25.796Z,53.00
2019-02-04T16:09:54.848Z,52.90
2019-02-04T16:12:23.541Z,52.70
2019-02-04T16:14:52.517Z,52.60
2019-02-04T16:17:21.730Z,52.50
2019-02-04T16:19:53.396Z,52.60
2019-02-04T16:22:20.826Z,52.60
2019-02-04T16:24:49.806Z,52.50
2019-02-04T16:27:18.613Z,52.50
2019-02-04T16:29:47.380Z,52.60
2019-02-04T16:32:16.368Z,52.50
2019-02-04T16:34:45.042Z,52.40
2019-02-04T16:37:13.795Z,52.40
2019-02-04T16:39:42.740Z,52.20
2019-02-04T16:42:11.416Z,52.20
2019-02-04T16:44:40.193Z,52.20
2019-02-04T16:47:09.052Z,52.20
2019-02-04T16:49:37.781Z,52.30
2019-02-04T16:52:06.963Z,52.10
2019-02-04T16:54:35.945Z,52.10
2019-02-04T16:57:04.898Z,52.00
2019-02-04T16:59:33.554Z,52.00
2019-02-04T17:02:02.602Z,52.00
2019-02-04T17:04:31.273Z,51.80
2019-02-04T17:07:05.313Z,51.80
2019-02-04T17:09:34.041Z,51.70
2019-02-04T17:12:07.958Z,51.60
2019-02-04T17:14:35.707Z,51.70
2019-02-04T17:17:04.393Z,51.70
2019-02-04T17:19:33.126Z,51.50
2019-02-04T17:22:01.824Z,51.50
2019-02-04T17:24:30.494Z,51.50
2019-02-04T17:26:59.205Z,51.60
2019-02-04T17:29:28.189Z,51.60
2019-02-04T17:32:00.282Z,51.50
2019-02-04T17:34:27.653Z,51.50
2019-02-04T17:36:56.379Z,51.40
2019-02-04T17:39:25.199Z,51.50
2019-02-04T17:41:53.873Z,51.50
2019-02-04T17:44:22.517Z,51.60
2019-02-04T17:46:51.557Z,51.50
2019-02-04T17:49:20.254Z,51.20
2019-02-04T17:51:49.246Z,51.10
2019-02-04T17:54:18.016Z,51.10
2019-02-04T17:56:47.010Z,51.00
2019-02-04T17:59:16.066Z,51.20
2019-02-04T18:01:44.741Z,51.20
2019-02-04T18:04:13.490Z,51.40
2019-02-04T18:06:42.214Z,51.50
2019-02-04T18:09:10.958Z,51.50
2019-02-04T18:11:39.998Z,51.60
2019-02-04T18:14:08.991Z,51.60
2019-02-04T18:16:37.675Z,51.60
2019-02-04T18:19:06.617Z,51.60
2019-02-04T18:21:35.574Z,51.60
2019-02-04T18:24:04.315Z,51.50
2019-02-04T18:26:33.081Z,51.60
2019-02-04T18:29:01.974Z,51.80
2019-02-04T18:31:33.962Z,51.70
2019-02-04T18:34:01.364Z,51.70
2019-02-04T18:36:30.168Z,51.60
2019-02-04T18:38:59.281Z,51.70
2019-02-04T18:41:27.965Z,51.70
2019-02-04T18:43:56.669Z,51.80
2019-02-04T18:46:25.925Z,51.80
2019-02-04T18:48:54.708Z,51.70
2019-02-04T18:51:23.526Z,51.60
2019-02-04T18:53:57.929Z,51.70
2019-02-04T18:56:23.092Z,51.70
2019-02-04T18:58:51.816Z,51.60
2019-02-04T19:01:20.633Z,51.70
2019-02-04T19:03:49.821Z,51.60
2019-02-04T19:06:18.796Z,51.70
2019-02-04T19:08:47.895Z,51.70
2019-02-04T19:11:16.609Z,51.70
2019-02-04T19:13:45.281Z,51.60
2019-02-04T19:16:14.091Z,51.50
2019-02-04T19:18:42.879Z,51.60
2019-02-04T19:21:11.621Z,51.60
2019-02-04T19:23:40.381Z,51.60
2019-02-04T19:26:09.083Z,51.70
2019-02-04T19:28:37.791Z,51.80
2019-02-04T19:31:10.011Z,51.70
2019-02-04T19:33:38.705Z,51.70
2019-02-04T19:36:09.146Z,51.80
2019-02-04T19:38:38.729Z,51.80
2019-02-04T19:41:07.456Z,51.70
2019-02-04T19:43:36.165Z,51.70
2019-02-04T19:46:05.249Z,51.70
2019-02-04T19:48:34.229Z,51.80
2019-02-04T19:51:03.201Z,51.80
2019-02-04T19:53:31.918Z,51.80
2019-02-04T19:56:00.702Z,51.80
2019-02-04T19:58:29.483Z,51.80
2019-02-04T20:00:58.236Z,51.90
2019-02-04T20:03:26.990Z,52.00
2019-02-04T20:05:55.672Z,51.90
2019-02-04T20:08:24.381Z,52.00
2019-02-04T20:10:53.329Z,52.00
2019-02-04T20:13:22.056Z,52.00
2019-02-04T20:15:51.012Z,52.10
2019-02-04T20:18:19.697Z,52.20
2019-02-04T20:20:48.426Z,52.30
2019-02-04T20:23:17.169Z,52.20
2019-02-04T20:25:46.313Z,52.20
2019-02-04T20:28:18.016Z,52.40
2019-02-04T20:30:46.741Z,52.60
2019-02-04T20:33:15.510Z,52.80
2019-02-04T20:35:44.213Z,52.90
2019-02-04T20:38:13.141Z,52.70
2019-02-04T20:40:42.308Z,52.80
2019-02-04T20:43:11.083Z,52.90
2019-02-04T20:45:40.094Z,52.80
2019-02-04T20:48:11.238Z,52.70
2019-02-04T20:50:40.966Z,52.60
2019-02-04T20:53:09.943Z,52.60
2019-02-04T20:55:38.973Z,52.70
2019-02-04T20:58:07.690Z,52.80
2019-02-04T21:00:36.384Z,52.90
2019-02-04T21:03:05.233Z,52.90
2019-02-04T21:05:33.997Z,53.00
2019-02-04T21:08:02.946Z,53.00
2019-02-04T21:10:31.677Z,53.00
2019-02-04T21:13:00.445Z,53.00
2019-02-04T21:15:29.485Z,53.60
2019-02-04T21:17:58.499Z,53.10
2019-02-04T21:20:27.249Z,53.00
2019-02-04T21:22:56.008Z,53.10
2019-02-04T21:25:25.085Z,53.20
2019-02-04T21:27:54.178Z,53.10
2019-02-04T21:30:37.232Z,53.20
2019-02-04T21:33:05.898Z,53.30
2019-02-04T21:35:34.615Z,53.10
2019-02-04T21:38:03.447Z,53.20
2019-02-04T21:40:32.558Z,53.30
2019-02-04T21:43:01.329Z,53.30
2019-02-04T21:45:30.321Z,53.30
2019-02-04T21:47:59.037Z,53.30
2019-02-04T21:50:28.002Z,53.30
2019-02-04T21:52:56.718Z,53.30
2019-02-04T21:55:25.715Z,53.40
2019-02-04T21:57:54.714Z,53.50
2019-02-04T22:00:34.184Z,53.30
2019-02-04T22:03:02.899Z,53.20
2019-02-04T22:05:32.696Z,53.50
2019-02-04T22:08:02.032Z,53.60
2019-02-04T22:10:31.511Z,53.60
2019-02-04T22:13:00.296Z,53.60
2019-02-04T22:15:29.034Z,53.70
2019-02-04T22:17:59.068Z,53.70
2019-02-04T22:20:27.837Z,53.60
2019-02-04T22:22:56.615Z,53.60
2019-02-04T22:25:25.342Z,53.80
2019-02-04T22:27:54.128Z,53.60
2019-02-04T22:30:24.919Z,53.70
2019-02-04T22:32:53.673Z,53.80
2019-02-04T22:35:22.417Z,53.70
2019-02-04T22:37:51.187Z,53.80
2019-02-04T22:40:24.476Z,53.80
2019-02-04T22:42:53.434Z,53.80
2019-02-04T22:45:22.142Z,54.00
2019-02-04T22:47:51.150Z,53.80
2019-02-04T22:50:24.977Z,53.60
2019-02-04T22:52:53.999Z,53.60
2019-02-04T22:55:31.749Z,53.80
2019-02-04T22:57:53.651Z,53.70
2019-02-04T23:00:48.613Z,53.80
2019-02-04T23:03:19.246Z,53.90
2019-02-04T23:05:47.952Z,54.10
2019-02-04T23:08:16.880Z,53.90
2019-02-04T23:10:45.906Z,53.90
2019-02-04T23:13:14.645Z,53.80
2019-02-04T23:15:43.689Z,53.80
2019-02-04T23:18:12.825Z,54.00
2019-02-04T23:20:41.511Z,53.90
2019-02-04T23:23:10.158Z,54.00
2019-02-04T23:25:43.602Z,54.10
2019-02-04T23:28:10.132Z,54.00
2019-02-04T23:30:38.831Z,53.90
2019-02-04T23:33:08.088Z,53.90
2019-02-04T23:35:37.067Z,54.00
2019-02-04T23:38:06.062Z,53.90
2019-02-04T23:40:34.773Z,53.90
2019-02-04T23:43:03.457Z,54.00
2019-02-04T23:45:32.329Z,54.10
2019-02-04T23:48:01.398Z,54.20
2019-02-04T23:50:30.373Z,54.20
2019-02-04T23:52:59.068Z,54.30
2019-02-04T23:55:27.924Z,54.30
2019-02-04T23:57:56.612Z,54.20
